sensor_id;sensor_type;location;lat;lon;timestamp;temperature;humidity
54518;DHT22;40423;53.176;6.002;2023-01-28T00:00:52;3.40;99.90
54518;DHT22;40423;53.176;6.002;2023-01-28T00:03:21;3.40;99.90
54518;DHT22;40423;53.176;6.002;2023-01-28T00:05:47;3.40;99.90
54518;DHT22;40423;53.176;6.002;2023-01-28T00:08:12;3.30;99.90
54518;DHT22;40423;53.176;6.002;2023-01-28T00:10:39;3.30;99.90
54518;DHT22;40423;53.176;6.002;2023-01-28T00:13:06;3.30;99.90
54518;DHT22;40423;53.176;6.002;2023-01-28T00:15:31;3.30;99.90
54518;DHT22;40423;53.176;6.002;2023-01-28T00:17:57;3.30;99.90
54518;DHT22;40423;53.176;6.002;2023-01-28T00:20:23;3.20;99.90
54518;DHT22;40423;53.176;6.002;2023-01-28T00:22:49;3.20;99.90
54518;DHT22;40423;53.176;6.002;2023-01-28T00:25:15;3.30;99.90
54518;DHT22;40423;53.176;6.002;2023-01-28T00:27:41;3.30;99.90
54518;DHT22;40423;53.176;6.002;2023-01-28T00:30:07;3.30;99.90
54518;DHT22;40423;53.176;6.002;2023-01-28T00:32:36;3.30;99.90
54518;DHT22;40423;53.176;6.002;2023-01-28T00:35:02;3.30;99.90
54518;DHT22;40423;53.176;6.002;2023-01-28T00:37:27;3.40;99.90
54518;DHT22;40423;53.176;6.002;2023-01-28T00:39:53;3.40;99.90
54518;DHT22;40423;53.176;6.002;2023-01-28T00:42:19;3.30;99.90
54518;DHT22;40423;53.176;6.002;2023-01-28T00:44:44;3.30;99.90
54518;DHT22;40423;53.176;6.002;2023-01-28T00:47:10;3.30;99.90
54518;DHT22;40423;53.176;6.002;2023-01-28T00:49:36;3.30;99.90
54518;DHT22;40423;53.176;6.002;2023-01-28T00:52:02;3.40;99.90
54518;DHT22;40423;53.176;6.002;2023-01-28T00:54:28;3.30;99.90
54518;DHT22;40423;53.176;6.002;2023-01-28T00:56:56;3.30;99.90
54518;DHT22;40423;53.176;6.002;2023-01-28T00:59:22;3.30;99.90
54518;DHT22;40423;53.176;6.002;2023-01-28T01:01:51;3.20;99.90
54518;DHT22;40423;53.176;6.002;2023-01-28T01:04:19;3.30;99.90
54518;DHT22;40423;53.176;6.002;2023-01-28T01:06:51;3.30;99.90
54518;DHT22;40423;53.176;6.002;2023-01-28T01:09:16;3.30;99.90
54518;DHT22;40423;53.176;6.002;2023-01-28T01:11:42;3.30;99.90
54518;DHT22;40423;53.176;6.002;2023-01-28T01:14:09;3.30;99.90
54518;DHT22;40423;53.176;6.002;2023-01-28T01:16:35;3.30;99.90
54518;DHT22;40423;53.176;6.002;2023-01-28T01:19:03;3.30;99.90
54518;DHT22;40423;53.176;6.002;2023-01-28T01:21:29;3.30;99.90
54518;DHT22;40423;53.176;6.002;2023-01-28T01:23:55;3.20;99.90
54518;DHT22;40423;53.176;6.002;2023-01-28T01:26:22;3.20;99.90
54518;DHT22;40423;53.176;6.002;2023-01-28T01:28:50;3.20;99.90
54518;DHT22;40423;53.176;6.002;2023-01-28T01:31:20;3.20;99.90
54518;DHT22;40423;53.176;6.002;2023-01-28T01:33:48;3.20;99.90
54518;DHT22;40423;53.176;6.002;2023-01-28T01:36:15;3.30;99.90
54518;DHT22;40423;53.176;6.002;2023-01-28T01:38:41;3.30;99.90
54518;DHT22;40423;53.176;6.002;2023-01-28T01:41:08;3.30;99.90
54518;DHT22;40423;53.176;6.002;2023-01-28T01:43:59;3.30;99.90
54518;DHT22;40423;53.176;6.002;2023-01-28T01:48:55;3.30;99.90
54518;DHT22;40423;53.176;6.002;2023-01-28T01:51:26;3.30;99.90
54518;DHT22;40423;53.176;6.002;2023-01-28T01:53:55;3.30;99.90
54518;DHT22;40423;53.176;6.002;2023-01-28T01:56:25;3.30;99.90
54518;DHT22;40423;53.176;6.002;2023-01-28T01:58:54;3.30;99.90
54518;DHT22;40423;53.176;6.002;2023-01-28T02:01:22;3.30;99.90
54518;DHT22;40423;53.176;6.002;2023-01-28T02:04:09;3.30;99.90
54518;DHT22;40423;53.176;6.002;2023-01-28T02:06:37;3.20;99.90
54518;DHT22;40423;53.176;6.002;2023-01-28T02:09:24;3.20;99.90
54518;DHT22;40423;53.176;6.002;2023-01-28T02:11:59;3.20;99.90
54518;DHT22;40423;53.176;6.002;2023-01-28T02:14:28;3.20;99.90
54518;DHT22;40423;53.176;6.002;2023-01-28T02:16:56;3.20;99.90
54518;DHT22;40423;53.176;6.002;2023-01-28T02:19:26;3.20;99.90
54518;DHT22;40423;53.176;6.002;2023-01-28T02:24:52;3.20;99.90
54518;DHT22;40423;53.176;6.002;2023-01-28T02:30:23;3.20;99.90
54518;DHT22;40423;53.176;6.002;2023-01-28T02:32:58;3.20;99.90
54518;DHT22;40423;53.176;6.002;2023-01-28T02:35:42;3.20;99.90
54518;DHT22;40423;53.176;6.002;2023-01-28T02:38:15;3.30;99.90
54518;DHT22;40423;53.176;6.002;2023-01-28T02:40:49;3.30;99.90
54518;DHT22;40423;53.176;6.002;2023-01-28T02:43:41;3.30;99.90
54518;DHT22;40423;53.176;6.002;2023-01-28T02:46:20;3.30;99.90
54518;DHT22;40423;53.176;6.002;2023-01-28T02:49:09;3.30;99.90
54518;DHT22;40423;53.176;6.002;2023-01-28T02:54:12;3.30;99.90
54518;DHT22;40423;53.176;6.002;2023-01-28T02:56:44;3.30;99.90
54518;DHT22;40423;53.176;6.002;2023-01-28T03:02:14;3.20;99.90
54518;DHT22;40423;53.176;6.002;2023-01-28T03:05:09;3.20;99.90
54518;DHT22;40423;53.176;6.002;2023-01-28T03:07:37;3.20;99.90
54518;DHT22;40423;53.176;6.002;2023-01-28T03:10:08;3.20;99.90
54518;DHT22;40423;53.176;6.002;2023-01-28T03:12:37;3.20;99.90
54518;DHT22;40423;53.176;6.002;2023-01-28T03:15:36;3.20;99.90
54518;DHT22;40423;53.176;6.002;2023-01-28T03:18:48;3.20;99.90
54518;DHT22;40423;53.176;6.002;2023-01-28T03:21:40;3.10;99.90
54518;DHT22;40423;53.176;6.002;2023-01-28T03:24:34;3.20;99.90
54518;DHT22;40423;53.176;6.002;2023-01-28T03:27:49;3.30;99.90
54518;DHT22;40423;53.176;6.002;2023-01-28T03:33:36;3.20;99.90
54518;DHT22;40423;53.176;6.002;2023-01-28T03:36:20;3.20;99.90
54518;DHT22;40423;53.176;6.002;2023-01-28T03:39:05;3.20;99.90
54518;DHT22;40423;53.176;6.002;2023-01-28T03:41:31;3.20;99.90
54518;DHT22;40423;53.176;6.002;2023-01-28T03:43:56;3.20;99.90
54518;DHT22;40423;53.176;6.002;2023-01-28T03:46:22;3.20;99.90
54518;DHT22;40423;53.176;6.002;2023-01-28T03:48:48;3.20;99.90
54518;DHT22;40423;53.176;6.002;2023-01-28T03:51:14;3.10;99.90
54518;DHT22;40423;53.176;6.002;2023-01-28T03:53:40;3.10;99.90
54518;DHT22;40423;53.176;6.002;2023-01-28T03:56:06;3.10;99.90
54518;DHT22;40423;53.176;6.002;2023-01-28T03:58:33;3.10;99.90
54518;DHT22;40423;53.176;6.002;2023-01-28T04:01:13;3.10;99.90
54518;DHT22;40423;53.176;6.002;2023-01-28T04:03:42;3.10;99.90
54518;DHT22;40423;53.176;6.002;2023-01-28T04:06:08;3.10;99.90
54518;DHT22;40423;53.176;6.002;2023-01-28T04:08:34;3.10;99.90
54518;DHT22;40423;53.176;6.002;2023-01-28T04:11:03;3.10;99.90
54518;DHT22;40423;53.176;6.002;2023-01-28T04:13:41;3.10;99.90
54518;DHT22;40423;53.176;6.002;2023-01-28T04:16:07;3.10;99.90
54518;DHT22;40423;53.176;6.002;2023-01-28T04:18:33;3.10;99.90
54518;DHT22;40423;53.176;6.002;2023-01-28T04:21:03;3.10;99.90
54518;DHT22;40423;53.176;6.002;2023-01-28T04:23:28;3.10;99.90
54518;DHT22;40423;53.176;6.002;2023-01-28T04:25:54;3.00;99.90
54518;DHT22;40423;53.176;6.002;2023-01-28T04:28:20;3.10;99.90
54518;DHT22;40423;53.176;6.002;2023-01-28T04:30:51;3.00;99.90
54518;DHT22;40423;53.176;6.002;2023-01-28T04:33:16;3.00;99.90
54518;DHT22;40423;53.176;6.002;2023-01-28T04:35:42;3.00;99.90
54518;DHT22;40423;53.176;6.002;2023-01-28T04:38:08;3.10;99.90
54518;DHT22;40423;53.176;6.002;2023-01-28T04:40:34;3.00;99.90
54518;DHT22;40423;53.176;6.002;2023-01-28T04:42:59;3.00;99.90
54518;DHT22;40423;53.176;6.002;2023-01-28T04:45:25;3.00;99.90
54518;DHT22;40423;53.176;6.002;2023-01-28T04:47:54;3.00;99.90
54518;DHT22;40423;53.176;6.002;2023-01-28T04:50:20;2.90;99.90
54518;DHT22;40423;53.176;6.002;2023-01-28T04:52:45;2.90;99.90
54518;DHT22;40423;53.176;6.002;2023-01-28T04:55:11;2.90;99.90
54518;DHT22;40423;53.176;6.002;2023-01-28T04:57:37;2.90;99.90
54518;DHT22;40423;53.176;6.002;2023-01-28T05:00:03;3.00;99.90
54518;DHT22;40423;53.176;6.002;2023-01-28T05:02:30;3.00;99.90
54518;DHT22;40423;53.176;6.002;2023-01-28T05:04:55;3.00;99.90
54518;DHT22;40423;53.176;6.002;2023-01-28T05:07:21;3.00;99.90
54518;DHT22;40423;53.176;6.002;2023-01-28T05:09:47;3.00;99.90
54518;DHT22;40423;53.176;6.002;2023-01-28T05:12:13;3.00;99.90
54518;DHT22;40423;53.176;6.002;2023-01-28T05:14:39;3.00;99.90
54518;DHT22;40423;53.176;6.002;2023-01-28T05:17:04;3.00;99.90
54518;DHT22;40423;53.176;6.002;2023-01-28T05:19:30;3.00;99.90
54518;DHT22;40423;53.176;6.002;2023-01-28T05:21:59;3.00;99.90
54518;DHT22;40423;53.176;6.002;2023-01-28T05:24:25;3.00;99.90
54518;DHT22;40423;53.176;6.002;2023-01-28T05:26:50;3.00;99.90
54518;DHT22;40423;53.176;6.002;2023-01-28T05:29:16;3.00;99.90
54518;DHT22;40423;53.176;6.002;2023-01-28T05:31:42;2.90;99.90
54518;DHT22;40423;53.176;6.002;2023-01-28T05:34:07;3.00;99.90
54518;DHT22;40423;53.176;6.002;2023-01-28T05:36:33;2.90;99.90
54518;DHT22;40423;53.176;6.002;2023-01-28T05:38:58;2.90;99.90
54518;DHT22;40423;53.176;6.002;2023-01-28T05:41:27;2.90;99.90
54518;DHT22;40423;53.176;6.002;2023-01-28T05:43:53;2.90;99.90
54518;DHT22;40423;53.176;6.002;2023-01-28T05:46:18;2.90;99.90
54518;DHT22;40423;53.176;6.002;2023-01-28T05:48:44;2.90;99.90
54518;DHT22;40423;53.176;6.002;2023-01-28T05:51:10;2.90;99.90
54518;DHT22;40423;53.176;6.002;2023-01-28T05:53:36;2.90;99.90
54518;DHT22;40423;53.176;6.002;2023-01-28T05:56:01;2.90;99.90
54518;DHT22;40423;53.176;6.002;2023-01-28T05:58:27;2.90;99.90
54518;DHT22;40423;53.176;6.002;2023-01-28T06:00:56;2.90;99.90
54518;DHT22;40423;53.176;6.002;2023-01-28T06:03:22;2.80;99.90
54518;DHT22;40423;53.176;6.002;2023-01-28T06:05:48;2.80;99.90
54518;DHT22;40423;53.176;6.002;2023-01-28T06:08:14;2.80;99.90
54518;DHT22;40423;53.176;6.002;2023-01-28T06:10:39;2.80;99.90
54518;DHT22;40423;53.176;6.002;2023-01-28T06:13:05;2.80;99.90
54518;DHT22;40423;53.176;6.002;2023-01-28T06:15:31;2.80;99.90
54518;DHT22;40423;53.176;6.002;2023-01-28T06:17:57;2.90;99.90
54518;DHT22;40423;53.176;6.002;2023-01-28T06:20:23;2.80;99.90
54518;DHT22;40423;53.176;6.002;2023-01-28T06:22:52;2.80;99.90
54518;DHT22;40423;53.176;6.002;2023-01-28T06:25:18;2.80;99.90
54518;DHT22;40423;53.176;6.002;2023-01-28T06:27:44;2.80;99.90
54518;DHT22;40423;53.176;6.002;2023-01-28T06:30:11;2.80;99.90
54518;DHT22;40423;53.176;6.002;2023-01-28T06:32:36;2.80;99.90
54518;DHT22;40423;53.176;6.002;2023-01-28T06:35:03;2.80;99.90
54518;DHT22;40423;53.176;6.002;2023-01-28T06:37:28;2.80;99.90
54518;DHT22;40423;53.176;6.002;2023-01-28T06:39:54;2.70;99.90
54518;DHT22;40423;53.176;6.002;2023-01-28T06:42:20;2.70;99.90
54518;DHT22;40423;53.176;6.002;2023-01-28T06:44:46;2.70;99.90
54518;DHT22;40423;53.176;6.002;2023-01-28T06:47:14;2.70;99.90
54518;DHT22;40423;53.176;6.002;2023-01-28T06:49:40;2.70;99.90
54518;DHT22;40423;53.176;6.002;2023-01-28T06:52:06;2.80;99.90
54518;DHT22;40423;53.176;6.002;2023-01-28T06:54:32;2.70;99.90
54518;DHT22;40423;53.176;6.002;2023-01-28T06:56:58;2.70;99.90
54518;DHT22;40423;53.176;6.002;2023-01-28T06:59:23;2.60;99.90
54518;DHT22;40423;53.176;6.002;2023-01-28T07:01:49;2.50;99.90
54518;DHT22;40423;53.176;6.002;2023-01-28T07:04:15;2.50;99.90
54518;DHT22;40423;53.176;6.002;2023-01-28T07:06:44;2.50;99.90
54518;DHT22;40423;53.176;6.002;2023-01-28T07:09:10;2.50;99.90
54518;DHT22;40423;53.176;6.002;2023-01-28T07:11:35;2.40;99.90
54518;DHT22;40423;53.176;6.002;2023-01-28T07:14:01;2.40;99.90
54518;DHT22;40423;53.176;6.002;2023-01-28T07:16:27;2.40;99.90
54518;DHT22;40423;53.176;6.002;2023-01-28T07:18:53;2.30;99.90
54518;DHT22;40423;53.176;6.002;2023-01-28T07:21:18;2.30;99.90
54518;DHT22;40423;53.176;6.002;2023-01-28T07:23:44;2.30;99.90
54518;DHT22;40423;53.176;6.002;2023-01-28T07:26:10;2.20;99.90
54518;DHT22;40423;53.176;6.002;2023-01-28T07:28:35;2.20;99.90
54518;DHT22;40423;53.176;6.002;2023-01-28T07:31:01;2.20;99.90
54518;DHT22;40423;53.176;6.002;2023-01-28T07:33:27;2.10;99.90
54518;DHT22;40423;53.176;6.002;2023-01-28T07:35:53;2.10;99.90
54518;DHT22;40423;53.176;6.002;2023-01-28T07:38:18;2.10;99.90
54518;DHT22;40423;53.176;6.002;2023-01-28T07:40:45;2.10;99.90
54518;DHT22;40423;53.176;6.002;2023-01-28T07:43:10;2.00;99.90
54518;DHT22;40423;53.176;6.002;2023-01-28T07:45:36;2.00;99.90
54518;DHT22;40423;53.176;6.002;2023-01-28T07:48:05;1.90;99.90
54518;DHT22;40423;53.176;6.002;2023-01-28T07:50:34;2.00;99.90
54518;DHT22;40423;53.176;6.002;2023-01-28T07:53:05;1.90;99.90
54518;DHT22;40423;53.176;6.002;2023-01-28T07:55:31;1.90;99.90
54518;DHT22;40423;53.176;6.002;2023-01-28T07:58:00;1.90;99.90
54518;DHT22;40423;53.176;6.002;2023-01-28T08:00:28;2.00;99.90
54518;DHT22;40423;53.176;6.002;2023-01-28T08:02:56;1.90;99.90
54518;DHT22;40423;53.176;6.002;2023-01-28T08:05:23;2.00;99.90
54518;DHT22;40423;53.176;6.002;2023-01-28T08:07:49;2.00;99.90
54518;DHT22;40423;53.176;6.002;2023-01-28T08:10:16;2.00;99.90
54518;DHT22;40423;53.176;6.002;2023-01-28T08:12:56;2.10;99.90
54518;DHT22;40423;53.176;6.002;2023-01-28T08:15:27;2.10;99.90
54518;DHT22;40423;53.176;6.002;2023-01-28T08:17:54;2.10;99.90
54518;DHT22;40423;53.176;6.002;2023-01-28T08:20:21;2.10;99.90
54518;DHT22;40423;53.176;6.002;2023-01-28T08:22:47;2.10;99.90
54518;DHT22;40423;53.176;6.002;2023-01-28T08:25:13;2.20;99.90
54518;DHT22;40423;53.176;6.002;2023-01-28T08:27:39;2.20;99.90
54518;DHT22;40423;53.176;6.002;2023-01-28T08:30:05;2.20;99.90
54518;DHT22;40423;53.176;6.002;2023-01-28T08:32:31;2.30;99.90
54518;DHT22;40423;53.176;6.002;2023-01-28T08:34:57;2.30;99.90
54518;DHT22;40423;53.176;6.002;2023-01-28T08:37:23;2.40;99.90
54518;DHT22;40423;53.176;6.002;2023-01-28T08:39:48;2.40;99.90
54518;DHT22;40423;53.176;6.002;2023-01-28T08:42:15;2.40;99.90
54518;DHT22;40423;53.176;6.002;2023-01-28T08:44:41;2.40;99.90
54518;DHT22;40423;53.176;6.002;2023-01-28T08:47:07;2.40;99.90
54518;DHT22;40423;53.176;6.002;2023-01-28T08:49:32;2.40;99.90
54518;DHT22;40423;53.176;6.002;2023-01-28T08:51:58;2.50;99.90
54518;DHT22;40423;53.176;6.002;2023-01-28T08:54:24;2.50;99.90
54518;DHT22;40423;53.176;6.002;2023-01-28T08:56:50;2.40;99.90
54518;DHT22;40423;53.176;6.002;2023-01-28T08:59:16;2.50;99.90
54518;DHT22;40423;53.176;6.002;2023-01-28T09:01:42;2.50;99.90
54518;DHT22;40423;53.176;6.002;2023-01-28T09:04:08;2.50;99.90
54518;DHT22;40423;53.176;6.002;2023-01-28T09:06:33;2.60;99.90
54518;DHT22;40423;53.176;6.002;2023-01-28T09:08:59;2.60;99.90
54518;DHT22;40423;53.176;6.002;2023-01-28T09:11:26;2.70;99.90
54518;DHT22;40423;53.176;6.002;2023-01-28T09:13:59;2.70;99.90
54518;DHT22;40423;53.176;6.002;2023-01-28T09:16:25;2.70;99.90
54518;DHT22;40423;53.176;6.002;2023-01-28T09:18:51;2.70;99.90
54518;DHT22;40423;53.176;6.002;2023-01-28T09:21:18;2.70;99.90
54518;DHT22;40423;53.176;6.002;2023-01-28T09:23:47;2.80;99.90
54518;DHT22;40423;53.176;6.002;2023-01-28T09:26:13;2.80;99.90
54518;DHT22;40423;53.176;6.002;2023-01-28T09:28:39;2.90;99.90
54518;DHT22;40423;53.176;6.002;2023-01-28T09:31:07;2.90;99.90
54518;DHT22;40423;53.176;6.002;2023-01-28T09:33:34;3.00;99.90
54518;DHT22;40423;53.176;6.002;2023-01-28T09:36:03;3.00;99.90
54518;DHT22;40423;53.176;6.002;2023-01-28T09:38:30;3.10;99.90
54518;DHT22;40423;53.176;6.002;2023-01-28T09:40:56;3.10;99.90
54518;DHT22;40423;53.176;6.002;2023-01-28T09:43:44;3.20;99.90
54518;DHT22;40423;53.176;6.002;2023-01-28T09:46:13;3.30;99.90
54518;DHT22;40423;53.176;6.002;2023-01-28T09:48:43;3.40;99.90
54518;DHT22;40423;53.176;6.002;2023-01-28T09:51:17;3.60;99.90
54518;DHT22;40423;53.176;6.002;2023-01-28T09:53:52;3.60;99.90
54518;DHT22;40423;53.176;6.002;2023-01-28T09:56:30;3.70;99.90
54518;DHT22;40423;53.176;6.002;2023-01-28T09:59:16;3.70;99.90
54518;DHT22;40423;53.176;6.002;2023-01-28T10:10:46;3.80;99.90
54518;DHT22;40423;53.176;6.002;2023-01-28T10:16:11;4.00;99.90
54518;DHT22;40423;53.176;6.002;2023-01-28T10:19:46;4.20;99.90
54518;DHT22;40423;53.176;6.002;2023-01-28T10:24:17;4.50;99.90
54518;DHT22;40423;53.176;6.002;2023-01-28T10:26:45;4.50;99.90
54518;DHT22;40423;53.176;6.002;2023-01-28T10:29:16;4.50;99.90
54518;DHT22;40423;53.176;6.002;2023-01-28T10:32:04;4.50;99.90
54518;DHT22;40423;53.176;6.002;2023-01-28T10:34:33;4.50;99.90
54518;DHT22;40423;53.176;6.002;2023-01-28T10:36:59;4.50;99.90
54518;DHT22;40423;53.176;6.002;2023-01-28T10:39:25;4.50;99.90
54518;DHT22;40423;53.176;6.002;2023-01-28T10:41:55;4.50;99.90
54518;DHT22;40423;53.176;6.002;2023-01-28T10:44:33;4.50;99.90
54518;DHT22;40423;53.176;6.002;2023-01-28T10:47:26;4.50;99.90
54518;DHT22;40423;53.176;6.002;2023-01-28T10:49:56;4.60;99.90
54518;DHT22;40423;53.176;6.002;2023-01-28T10:52:24;4.60;99.90
54518;DHT22;40423;53.176;6.002;2023-01-28T10:54:59;4.60;99.90
54518;DHT22;40423;53.176;6.002;2023-01-28T10:57:25;4.70;99.90
54518;DHT22;40423;53.176;6.002;2023-01-28T10:59:50;4.70;99.90
54518;DHT22;40423;53.176;6.002;2023-01-28T11:02:29;4.70;99.90
54518;DHT22;40423;53.176;6.002;2023-01-28T11:05:01;4.70;99.90
54518;DHT22;40423;53.176;6.002;2023-01-28T11:07:27;4.70;99.90
54518;DHT22;40423;53.176;6.002;2023-01-28T11:09:53;4.80;99.90
54518;DHT22;40423;53.176;6.002;2023-01-28T11:12:24;4.80;99.90
54518;DHT22;40423;53.176;6.002;2023-01-28T11:14:52;4.80;99.90
54518;DHT22;40423;53.176;6.002;2023-01-28T11:17:19;4.80;99.90
54518;DHT22;40423;53.176;6.002;2023-01-28T11:19:47;4.70;99.90
54518;DHT22;40423;53.176;6.002;2023-01-28T11:24:52;4.80;99.90
54518;DHT22;40423;53.176;6.002;2023-01-28T11:27:21;4.90;99.90
54518;DHT22;40423;53.176;6.002;2023-01-28T11:29:50;4.90;99.90
54518;DHT22;40423;53.176;6.002;2023-01-28T11:32:18;4.90;99.90
54518;DHT22;40423;53.176;6.002;2023-01-28T11:34:50;4.90;99.90
54518;DHT22;40423;53.176;6.002;2023-01-28T11:37:19;4.90;99.90
54518;DHT22;40423;53.176;6.002;2023-01-28T11:39:46;4.90;99.90
54518;DHT22;40423;53.176;6.002;2023-01-28T11:42:17;4.90;99.90
54518;DHT22;40423;53.176;6.002;2023-01-28T11:44:44;5.00;99.90
54518;DHT22;40423;53.176;6.002;2023-01-28T11:57:59;5.20;99.90
54518;DHT22;40423;53.176;6.002;2023-01-28T12:08:54;5.20;99.90
54518;DHT22;40423;53.176;6.002;2023-01-28T12:23:05;5.40;99.90
54518;DHT22;40423;53.176;6.002;2023-01-28T12:41:43;6.30;99.90
54518;DHT22;40423;53.176;6.002;2023-01-28T12:44:19;6.30;99.90
54518;DHT22;40423;53.176;6.002;2023-01-28T12:46:54;6.40;99.90
54518;DHT22;40423;53.176;6.002;2023-01-28T12:55:18;6.40;99.90
54518;DHT22;40423;53.176;6.002;2023-01-28T12:57:46;6.40;99.90
54518;DHT22;40423;53.176;6.002;2023-01-28T13:03:28;6.00;99.90
54518;DHT22;40423;53.176;6.002;2023-01-28T13:06:03;5.90;99.90
54518;DHT22;40423;53.176;6.002;2023-01-28T13:08:33;5.90;99.90
54518;DHT22;40423;53.176;6.002;2023-01-28T13:11:01;6.00;99.90
54518;DHT22;40423;53.176;6.002;2023-01-28T13:13:33;6.00;99.90
54518;DHT22;40423;53.176;6.002;2023-01-28T13:16:03;6.00;99.90
54518;DHT22;40423;53.176;6.002;2023-01-28T13:21:06;6.00;99.90
54518;DHT22;40423;53.176;6.002;2023-01-28T13:23:43;6.00;99.90
54518;DHT22;40423;53.176;6.002;2023-01-28T13:28:44;5.80;99.90
54518;DHT22;40423;53.176;6.002;2023-01-28T13:31:12;5.80;99.90
54518;DHT22;40423;53.176;6.002;2023-01-28T13:33:45;5.80;99.90
54518;DHT22;40423;53.176;6.002;2023-01-28T13:38:44;5.90;99.90
54518;DHT22;40423;53.176;6.002;2023-01-28T13:41:10;5.90;99.90
54518;DHT22;40423;53.176;6.002;2023-01-28T13:43:39;5.90;99.90
54518;DHT22;40423;53.176;6.002;2023-01-28T13:46:11;5.90;99.90
54518;DHT22;40423;53.176;6.002;2023-01-28T13:48:43;5.90;99.90
54518;DHT22;40423;53.176;6.002;2023-01-28T13:51:25;5.90;99.90
54518;DHT22;40423;53.176;6.002;2023-01-28T13:54:09;5.90;99.90
54518;DHT22;40423;53.176;6.002;2023-01-28T14:08:45;5.80;99.90
54518;DHT22;40423;53.176;6.002;2023-01-28T14:19:04;5.60;99.90
54518;DHT22;40423;53.176;6.002;2023-01-28T14:21:33;5.60;99.90
54518;DHT22;40423;53.176;6.002;2023-01-28T14:24:00;5.60;99.90
54518;DHT22;40423;53.176;6.002;2023-01-28T14:32:18;5.70;99.90
54518;DHT22;40423;53.176;6.002;2023-01-28T14:34:46;5.70;99.90
54518;DHT22;40423;53.176;6.002;2023-01-28T14:37:18;5.70;99.90
54518;DHT22;40423;53.176;6.002;2023-01-28T14:39:59;5.70;99.90
54518;DHT22;40423;53.176;6.002;2023-01-28T14:42:29;5.70;99.90
54518;DHT22;40423;53.176;6.002;2023-01-28T14:56:19;5.70;99.90
54518;DHT22;40423;53.176;6.002;2023-01-28T14:58:52;5.70;99.90
54518;DHT22;40423;53.176;6.002;2023-01-28T15:01:26;5.70;99.90
54518;DHT22;40423;53.176;6.002;2023-01-28T15:03:52;5.70;99.90
54518;DHT22;40423;53.176;6.002;2023-01-28T15:06:20;5.70;99.90
54518;DHT22;40423;53.176;6.002;2023-01-28T15:08:52;5.70;99.90
54518;DHT22;40423;53.176;6.002;2023-01-28T15:11:23;5.70;99.90
54518;DHT22;40423;53.176;6.002;2023-01-28T15:13:55;5.70;99.90
54518;DHT22;40423;53.176;6.002;2023-01-28T15:16:25;5.70;99.90
54518;DHT22;40423;53.176;6.002;2023-01-28T15:18:54;5.70;99.90
54518;DHT22;40423;53.176;6.002;2023-01-28T15:21:25;5.70;99.90
54518;DHT22;40423;53.176;6.002;2023-01-28T15:23:54;5.70;99.90
54518;DHT22;40423;53.176;6.002;2023-01-28T15:28:49;5.70;99.90
54518;DHT22;40423;53.176;6.002;2023-01-28T15:31:22;5.70;99.90
54518;DHT22;40423;53.176;6.002;2023-01-28T15:34:16;5.70;99.90
54518;DHT22;40423;53.176;6.002;2023-01-28T15:36:41;5.70;99.90
54518;DHT22;40423;53.176;6.002;2023-01-28T15:39:15;5.60;99.90
54518;DHT22;40423;53.176;6.002;2023-01-28T15:41:44;5.60;99.90
54518;DHT22;40423;53.176;6.002;2023-01-28T15:46:58;5.60;99.90
54518;DHT22;40423;53.176;6.002;2023-01-28T15:49:35;5.60;99.90
54518;DHT22;40423;53.176;6.002;2023-01-28T15:52:02;5.60;99.90
54518;DHT22;40423;53.176;6.002;2023-01-28T15:54:29;5.50;99.90
54518;DHT22;40423;53.176;6.002;2023-01-28T15:56:55;5.50;99.90
54518;DHT22;40423;53.176;6.002;2023-01-28T15:59:26;5.50;99.90
54518;DHT22;40423;53.176;6.002;2023-01-28T16:02:14;5.50;99.90
54518;DHT22;40423;53.176;6.002;2023-01-28T16:04:40;5.40;99.90
54518;DHT22;40423;53.176;6.002;2023-01-28T16:07:06;5.40;99.90
54518;DHT22;40423;53.176;6.002;2023-01-28T16:09:33;5.40;99.90
54518;DHT22;40423;53.176;6.002;2023-01-28T16:12:05;5.40;99.90
54518;DHT22;40423;53.176;6.002;2023-01-28T16:14:42;5.40;99.90
54518;DHT22;40423;53.176;6.002;2023-01-28T16:17:14;5.30;99.90
54518;DHT22;40423;53.176;6.002;2023-01-28T16:19:43;5.40;99.90
54518;DHT22;40423;53.176;6.002;2023-01-28T16:22:33;5.30;99.90
54518;DHT22;40423;53.176;6.002;2023-01-28T16:25:00;5.30;99.90
54518;DHT22;40423;53.176;6.002;2023-01-28T16:27:28;5.20;99.90
54518;DHT22;40423;53.176;6.002;2023-01-28T16:29:54;5.20;99.90
54518;DHT22;40423;53.176;6.002;2023-01-28T16:34:58;5.20;99.90
54518;DHT22;40423;53.176;6.002;2023-01-28T16:37:24;5.10;99.90
54518;DHT22;40423;53.176;6.002;2023-01-28T16:39:49;5.10;99.90
54518;DHT22;40423;53.176;6.002;2023-01-28T16:42:15;5.10;99.90
54518;DHT22;40423;53.176;6.002;2023-01-28T16:44:41;5.10;99.90
54518;DHT22;40423;53.176;6.002;2023-01-28T16:47:07;5.10;99.90
54518;DHT22;40423;53.176;6.002;2023-01-28T16:49:36;5.10;99.90
54518;DHT22;40423;53.176;6.002;2023-01-28T16:52:03;5.00;99.90
54518;DHT22;40423;53.176;6.002;2023-01-28T16:54:32;5.00;99.90
54518;DHT22;40423;53.176;6.002;2023-01-28T16:57:01;5.00;99.90
54518;DHT22;40423;53.176;6.002;2023-01-28T16:59:27;5.00;99.90
54518;DHT22;40423;53.176;6.002;2023-01-28T17:01:53;5.00;99.90
54518;DHT22;40423;53.176;6.002;2023-01-28T17:04:18;5.00;99.90
54518;DHT22;40423;53.176;6.002;2023-01-28T17:06:44;5.00;99.90
54518;DHT22;40423;53.176;6.002;2023-01-28T17:09:11;5.00;99.90
54518;DHT22;40423;53.176;6.002;2023-01-28T17:11:37;5.00;99.90
54518;DHT22;40423;53.176;6.002;2023-01-28T17:14:04;5.00;99.90
54518;DHT22;40423;53.176;6.002;2023-01-28T17:16:29;5.00;99.90
54518;DHT22;40423;53.176;6.002;2023-01-28T17:18:55;5.00;99.90
54518;DHT22;40423;53.176;6.002;2023-01-28T17:21:21;5.00;99.90
54518;DHT22;40423;53.176;6.002;2023-01-28T17:23:47;5.00;99.90
54518;DHT22;40423;53.176;6.002;2023-01-28T17:26:14;5.00;99.90
54518;DHT22;40423;53.176;6.002;2023-01-28T17:28:40;5.00;99.90
54518;DHT22;40423;53.176;6.002;2023-01-28T17:31:07;5.00;99.90
54518;DHT22;40423;53.176;6.002;2023-01-28T17:33:37;5.00;99.90
54518;DHT22;40423;53.176;6.002;2023-01-28T17:36:03;5.00;99.90
54518;DHT22;40423;53.176;6.002;2023-01-28T17:38:30;5.00;99.90
54518;DHT22;40423;53.176;6.002;2023-01-28T17:41:07;5.00;99.90
54518;DHT22;40423;53.176;6.002;2023-01-28T17:43:33;5.00;99.90
54518;DHT22;40423;53.176;6.002;2023-01-28T17:45:59;5.00;99.90
54518;DHT22;40423;53.176;6.002;2023-01-28T17:48:26;5.00;99.90
54518;DHT22;40423;53.176;6.002;2023-01-28T17:50:57;5.00;99.90
54518;DHT22;40423;53.176;6.002;2023-01-28T17:53:23;5.00;99.90
54518;DHT22;40423;53.176;6.002;2023-01-28T17:55:49;5.00;99.90
54518;DHT22;40423;53.176;6.002;2023-01-28T17:58:15;5.10;99.90
54518;DHT22;40423;53.176;6.002;2023-01-28T18:00:40;5.00;99.90
54518;DHT22;40423;53.176;6.002;2023-01-28T18:03:10;5.00;99.90
54518;DHT22;40423;53.176;6.002;2023-01-28T18:05:36;5.00;99.90
54518;DHT22;40423;53.176;6.002;2023-01-28T18:08:02;5.00;99.90
54518;DHT22;40423;53.176;6.002;2023-01-28T18:10:27;5.00;99.90
54518;DHT22;40423;53.176;6.002;2023-01-28T18:12:56;5.00;99.90
54518;DHT22;40423;53.176;6.002;2023-01-28T18:15:22;5.00;99.90
54518;DHT22;40423;53.176;6.002;2023-01-28T18:17:49;5.00;99.90
54518;DHT22;40423;53.176;6.002;2023-01-28T18:20:15;5.00;99.90